createdAt,value
2018-09-24T00:01:07.444Z,13.90
2018-09-24T00:03:36.431Z,13.90
2018-09-24T00:06:05.410Z,14.00
2018-09-24T00:08:34.374Z,14.00
2018-09-24T00:11:03.393Z,14.00
2018-09-24T00:13:32.403Z,14.00
2018-09-24T00:16:01.400Z,14.00
2018-09-24T00:18:30.305Z,14.00
2018-09-24T00:20:59.223Z,13.90
2018-09-24T00:23:28.162Z,13.90
2018-09-24T00:25:57.212Z,13.80
2018-09-24T00:28:26.251Z,13.80
2018-09-24T00:30:55.280Z,13.80
2018-09-24T00:33:24.332Z,13.80
2018-09-24T00:35:53.392Z,13.70
2018-09-24T00:38:22.410Z,13.70
2018-09-24T00:40:51.333Z,13.80
2018-09-24T00:43:20.410Z,13.80
2018-09-24T00:45:49.462Z,13.90
2018-09-24T00:48:18.442Z,13.90
2018-09-24T00:50:47.345Z,13.90
2018-09-24T00:53:16.413Z,13.90
2018-09-24T00:55:45.403Z,13.80
2018-09-24T00:58:14.430Z,13.80
2018-09-24T01:00:43.425Z,13.80
2018-09-24T01:03:12.470Z,13.80
2018-09-24T01:05:41.465Z,13.70
2018-09-24T01:08:10.497Z,13.60
2018-09-24T01:10:39.450Z,13.40
2018-09-24T01:13:08.425Z,13.20
2018-09-24T01:15:37.355Z,13.10
2018-09-24T01:18:06.411Z,12.80
2018-09-24T01:20:35.411Z,12.70
2018-09-24T01:23:04.378Z,12.50
2018-09-24T01:25:33.370Z,12.30
2018-09-24T01:28:03.544Z,12.10
2018-09-24T01:30:32.593Z,12.00
2018-09-24T01:33:01.531Z,11.80
2018-09-24T01:35:30.545Z,11.70
2018-09-24T01:37:59.489Z,11.50
2018-09-24T01:40:28.505Z,11.40
2018-09-24T01:42:57.454Z,11.30
2018-09-24T01:45:26.536Z,11.20
2018-09-24T01:47:55.530Z,11.10
2018-09-24T01:50:24.566Z,11.00
2018-09-24T01:52:53.866Z,10.90
2018-09-24T01:55:22.890Z,10.80
2018-09-24T01:57:51.797Z,10.70
2018-09-24T02:00:20.746Z,10.70
2018-09-24T02:02:49.648Z,10.70
2018-09-24T02:05:18.590Z,10.60
2018-09-24T02:07:47.531Z,10.60
2018-09-24T02:10:24.150Z,10.60
2018-09-24T02:12:55.655Z,10.60
2018-09-24T02:15:32.993Z,10.60
2018-09-24T02:18:02.063Z,10.60
2018-09-24T02:20:31.002Z,10.60
2018-09-24T02:23:00.055Z,10.60
2018-09-24T02:25:29.010Z,10.60
2018-09-24T02:27:58.094Z,10.70
2018-09-24T02:30:27.110Z,10.70
2018-09-24T02:32:56.038Z,10.60
2018-09-24T02:35:25.150Z,10.70
2018-09-24T02:37:54.131Z,10.70
2018-09-24T02:40:24.219Z,10.70
2018-09-24T02:42:53.230Z,10.70
2018-09-24T02:45:22.180Z,10.60
2018-09-24T02:47:51.145Z,10.70
2018-09-24T02:50:20.178Z,10.60
2018-09-24T02:52:49.246Z,10.60
2018-09-24T02:55:19.262Z,10.50
2018-09-24T02:57:48.210Z,10.50
2018-09-24T03:00:22.711Z,10.50
2018-09-24T03:02:51.809Z,10.50
2018-09-24T03:05:20.956Z,10.50
2018-09-24T03:07:49.905Z,10.50
2018-09-24T03:10:18.934Z,10.40
2018-09-24T03:12:50.529Z,10.40
2018-09-24T03:15:19.710Z,10.40
2018-09-24T03:17:48.750Z,10.40
2018-09-24T03:20:17.739Z,10.40
2018-09-24T03:22:46.701Z,10.40
2018-09-24T03:25:18.400Z,10.40
2018-09-24T03:27:47.585Z,10.40
2018-09-24T03:30:16.910Z,10.40
2018-09-24T03:32:46.018Z,10.40
2018-09-24T03:35:14.990Z,10.30
2018-09-24T03:37:43.936Z,10.30
2018-09-24T03:40:12.905Z,10.20
2018-09-24T03:42:41.832Z,10.10
2018-09-24T03:45:10.832Z,10.00
2018-09-24T03:47:39.768Z,10.00
2018-09-24T03:50:08.725Z,10.00
2018-09-24T03:52:37.695Z,9.90
2018-09-24T03:55:06.756Z,9.80
2018-09-24T03:57:35.770Z,9.80
2018-09-24T04:00:04.705Z,9.70
2018-09-24T04:02:33.743Z,9.70
2018-09-24T04:05:07.890Z,9.70
2018-09-24T04:07:41.950Z,9.70
2018-09-24T04:10:16.188Z,9.70
2018-09-24T04:12:50.418Z,9.70
2018-09-24T04:15:24.694Z,9.70
2018-09-24T04:17:58.922Z,9.70
2018-09-24T04:20:33.211Z,9.70
2018-09-24T04:23:07.315Z,9.70
2018-09-24T04:25:41.426Z,9.70
2018-09-24T04:28:15.551Z,9.60
2018-09-24T04:30:49.851Z,9.60
2018-09-24T04:33:27.757Z,9.70
2018-09-24T04:36:01.949Z,9.60
2018-09-24T04:38:36.202Z,9.60
2018-09-24T04:41:10.349Z,9.60
2018-09-24T04:43:44.545Z,9.60
2018-09-24T04:46:18.782Z,9.60
2018-09-24T04:48:52.996Z,9.60
2018-09-24T04:51:27.131Z,9.60
2018-09-24T04:54:01.370Z,9.60
2018-09-24T04:56:35.452Z,9.60
2018-09-24T04:59:09.462Z,9.60
2018-09-24T05:01:43.845Z,9.70
2018-09-24T05:04:17.926Z,9.60
2018-09-24T05:06:52.230Z,9.70
2018-09-24T05:09:26.505Z,9.70
2018-09-24T05:12:00.717Z,9.70
2018-09-24T05:14:34.829Z,9.70
2018-09-24T05:17:08.938Z,9.70
2018-09-24T05:19:43.123Z,9.70
2018-09-24T05:22:17.130Z,9.80
2018-09-24T05:24:51.289Z,9.80
2018-09-24T05:27:25.435Z,9.80
2018-09-24T05:29:59.519Z,9.80
2018-09-24T05:32:33.621Z,9.80
2018-09-24T05:35:07.717Z,9.80
2018-09-24T05:37:41.943Z,9.80
2018-09-24T05:40:16.092Z,9.90
2018-09-24T05:42:50.144Z,9.90
2018-09-24T05:45:24.244Z,9.90
2018-09-24T05:47:58.567Z,9.90
2018-09-24T05:50:32.727Z,9.90
2018-09-24T05:53:06.817Z,9.90
2018-09-24T05:55:40.953Z,10.00
2018-09-24T05:58:15.130Z,9.90
2018-09-24T06:00:49.227Z,9.90
2018-09-24T06:03:23.373Z,10.00
2018-09-24T06:05:57.485Z,10.00
2018-09-24T06:08:31.521Z,10.00
2018-09-24T06:11:05.592Z,10.10
2018-09-24T06:13:39.699Z,10.10
2018-09-24T06:16:14.053Z,10.20
2018-09-24T06:18:48.063Z,10.30
2018-09-24T06:21:22.210Z,10.30
2018-09-24T06:23:56.390Z,10.30
2018-09-24T06:26:30.502Z,10.40
2018-09-24T06:29:04.630Z,10.50
2018-09-24T06:31:38.902Z,10.40
2018-09-24T06:34:13.181Z,10.40
2018-09-24T06:36:47.440Z,10.30
2018-09-24T06:39:21.633Z,10.30
2018-09-24T06:41:55.769Z,10.30
2018-09-24T06:44:29.946Z,10.30
2018-09-24T06:47:04.012Z,10.50
2018-09-24T06:49:38.086Z,10.60
2018-09-24T06:52:12.350Z,10.70
2018-09-24T06:54:46.411Z,10.70
2018-09-24T06:57:20.530Z,10.70
2018-09-24T06:59:54.663Z,10.80
2018-09-24T07:02:28.910Z,10.80
2018-09-24T07:05:03.080Z,10.70
2018-09-24T07:07:37.334Z,10.80
2018-09-24T07:10:11.510Z,10.80
2018-09-24T07:12:45.814Z,10.80
2018-09-24T07:15:19.966Z,10.90
2018-09-24T07:17:54.018Z,10.90
2018-09-24T07:20:28.211Z,11.00
2018-09-24T07:23:02.408Z,11.10
2018-09-24T07:25:36.710Z,11.10
2018-09-24T07:28:11.005Z,11.20
2018-09-24T07:30:45.173Z,11.20
2018-09-24T07:33:19.544Z,11.20
2018-09-24T07:35:53.624Z,11.10
2018-09-24T07:38:27.823Z,11.00
2018-09-24T07:41:02.849Z,10.90
2018-09-24T07:43:37.312Z,10.80
2018-09-24T07:46:11.497Z,10.70
2018-09-24T07:48:45.628Z,10.70
2018-09-24T07:51:19.824Z,10.70
2018-09-24T07:53:54.009Z,10.70
2018-09-24T07:56:28.034Z,10.70
2018-09-24T07:59:02.068Z,10.70
2018-09-24T08:01:36.095Z,10.80
2018-09-24T08:04:10.209Z,10.90
2018-09-24T08:06:44.465Z,10.90
2018-09-24T08:09:18.711Z,11.00
2018-09-24T08:11:52.895Z,11.10
2018-09-24T08:14:27.106Z,11.10
2018-09-24T08:17:01.088Z,11.20
2018-09-24T08:19:35.251Z,11.30
2018-09-24T08:22:09.510Z,11.30
2018-09-24T08:24:43.691Z,11.30
2018-09-24T08:30:01.107Z,11.40
2018-09-24T08:32:35.318Z,11.50
2018-09-24T08:35:09.545Z,11.60
2018-09-24T08:37:43.928Z,11.80
2018-09-24T08:40:18.035Z,11.90
2018-09-24T08:42:52.091Z,11.90
2018-09-24T08:45:26.145Z,11.90
2018-09-24T08:48:00.224Z,11.90
2018-09-24T08:50:34.369Z,11.90
2018-09-24T08:53:08.590Z,12.00
2018-09-24T08:55:42.875Z,12.00
2018-09-24T08:58:17.030Z,12.00
2018-09-24T09:00:51.230Z,12.10
2018-09-24T09:03:25.422Z,12.10
2018-09-24T09:05:59.530Z,12.20
2018-09-24T09:08:33.691Z,12.10
2018-09-24T09:11:07.921Z,12.10
2018-09-24T09:13:42.229Z,11.90
2018-09-24T09:16:16.498Z,11.90
2018-09-24T09:18:50.691Z,11.80
2018-09-24T09:21:24.891Z,11.80
2018-09-24T09:23:59.124Z,11.80
2018-09-24T09:26:33.170Z,11.70
2018-09-24T09:29:07.469Z,11.80
2018-09-24T09:31:41.485Z,11.90
2018-09-24T09:34:15.630Z,12.00
2018-09-24T09:36:49.883Z,12.10
2018-09-24T09:39:24.009Z,12.20
2018-09-24T09:41:58.070Z,12.20
2018-09-24T09:44:32.332Z,12.10
2018-09-24T09:47:06.511Z,12.10
2018-09-24T09:49:40.656Z,12.10
2018-09-24T09:52:14.865Z,12.10
2018-09-24T09:54:48.872Z,12.30
2018-09-24T09:57:23.035Z,12.40
2018-09-24T09:59:57.129Z,12.30
2018-09-24T10:02:31.254Z,12.40
2018-09-24T10:05:05.234Z,12.50
2018-09-24T10:07:39.454Z,12.70
2018-09-24T10:10:13.423Z,12.80
2018-09-24T10:12:47.518Z,12.90
2018-09-24T10:15:21.756Z,13.30
2018-09-24T10:17:55.925Z,13.50
2018-09-24T10:20:30.025Z,13.50
2018-09-24T10:23:04.235Z,13.50
2018-09-24T10:25:38.382Z,13.40
2018-09-24T10:28:12.612Z,13.40
2018-09-24T10:30:46.662Z,13.40
2018-09-24T10:33:20.946Z,13.30
2018-09-24T10:35:55.133Z,13.30
2018-09-24T10:38:29.264Z,13.40
2018-09-24T10:41:03.414Z,13.40
2018-09-24T10:43:37.610Z,13.60
2018-09-24T10:46:12.007Z,13.70
2018-09-24T10:48:46.022Z,13.80
2018-09-24T10:51:20.170Z,13.70
2018-09-24T10:53:54.400Z,13.70
2018-09-24T10:56:28.645Z,13.80
2018-09-24T10:59:02.925Z,14.00
2018-09-24T11:01:37.160Z,14.40
2018-09-24T11:04:11.370Z,14.70
2018-09-24T11:06:45.477Z,15.10
2018-09-24T11:09:19.720Z,15.40
2018-09-24T11:11:53.943Z,15.70
2018-09-24T11:14:28.062Z,15.90
2018-09-24T11:17:02.489Z,16.40
2018-09-24T11:19:36.378Z,16.70
2018-09-24T11:22:10.669Z,17.00
2018-09-24T11:24:44.773Z,17.00
2018-09-24T11:27:18.976Z,16.80
2018-09-24T11:29:53.210Z,16.80
2018-09-24T11:32:27.260Z,16.60
2018-09-24T11:35:01.518Z,16.30
2018-09-24T11:37:35.934Z,15.80
2018-09-24T11:40:10.071Z,15.50
2018-09-24T11:42:44.186Z,15.10
2018-09-24T11:45:18.254Z,14.70
2018-09-24T11:47:52.611Z,14.40
2018-09-24T11:50:26.835Z,14.30
2018-09-24T11:53:01.087Z,14.10
2018-09-24T11:55:35.051Z,14.10
2018-09-24T11:58:09.270Z,14.20
2018-09-24T12:00:43.387Z,14.40
2018-09-24T12:03:17.530Z,14.30
2018-09-24T12:05:51.780Z,14.20
2018-09-24T12:08:25.970Z,14.10
2018-09-24T12:11:00.273Z,14.20
2018-09-24T12:13:34.434Z,14.30
2018-09-24T12:16:08.702Z,14.30
2018-09-24T12:18:51.878Z,14.50
2018-09-24T12:21:26.164Z,14.70
2018-09-24T12:24:00.412Z,14.90
2018-09-24T12:26:34.460Z,15.10
2018-09-24T12:29:08.599Z,15.40
2018-09-24T12:31:42.774Z,15.70
2018-09-24T12:34:16.850Z,15.70
2018-09-24T12:36:50.889Z,16.10
2018-09-24T12:39:24.962Z,16.30
2018-09-24T12:41:59.046Z,16.20
2018-09-24T12:44:33.235Z,16.20
2018-09-24T12:47:07.376Z,15.90
2018-09-24T12:49:41.571Z,15.80
2018-09-24T12:52:15.960Z,15.90
2018-09-24T12:54:50.111Z,16.10
2018-09-24T12:57:24.290Z,16.30
2018-09-24T12:59:58.438Z,16.30
2018-09-24T13:02:32.499Z,16.40
2018-09-24T13:05:06.602Z,17.20
2018-09-24T13:07:40.866Z,17.50
2018-09-24T13:10:15.053Z,17.40
2018-09-24T13:12:49.198Z,17.00
2018-09-24T13:15:23.330Z,16.70
2018-09-24T13:17:57.402Z,16.40
2018-09-24T13:20:31.651Z,16.00
2018-09-24T13:23:05.770Z,15.60
2018-09-24T13:25:40.030Z,15.40
2018-09-24T13:28:14.183Z,15.10
2018-09-24T13:30:48.423Z,14.90
2018-09-24T13:33:22.610Z,14.60
2018-09-24T13:35:56.710Z,14.20
2018-09-24T13:38:30.816Z,13.90
2018-09-24T13:41:04.813Z,13.80
2018-09-24T13:43:38.959Z,13.60
2018-09-24T13:46:13.162Z,13.60
2018-09-24T13:48:47.320Z,13.70
2018-09-24T13:51:21.485Z,13.70
2018-09-24T13:53:55.623Z,13.80
2018-09-24T13:56:29.806Z,14.10
2018-09-24T13:59:04.014Z,14.60
2018-09-24T14:01:38.157Z,15.20
2018-09-24T14:04:12.250Z,15.80
2018-09-24T14:06:46.570Z,16.40
2018-09-24T14:09:20.761Z,16.80
2018-09-24T14:11:55.010Z,16.60
2018-09-24T14:14:29.167Z,16.10
2018-09-24T14:17:03.263Z,15.60
2018-09-24T14:19:37.522Z,15.10
2018-09-24T14:22:11.716Z,14.60
2018-09-24T14:24:46.010Z,14.50
2018-09-24T14:27:20.099Z,14.40
2018-09-24T14:29:54.335Z,14.30
2018-09-24T14:32:28.510Z,14.20
2018-09-24T14:35:02.668Z,14.00
2018-09-24T14:37:38.750Z,13.80
2018-09-24T14:40:12.931Z,13.60
2018-09-24T14:42:47.192Z,13.50
2018-09-24T14:45:21.450Z,13.30
2018-09-24T14:47:55.550Z,13.30
2018-09-24T14:50:29.814Z,13.10
2018-09-24T14:53:04.065Z,13.10
2018-09-24T14:55:38.310Z,13.10
2018-09-24T14:58:12.887Z,12.90
2018-09-24T15:00:46.945Z,12.90
2018-09-24T15:03:21.267Z,12.70
2018-09-24T15:05:55.541Z,12.60
2018-09-24T15:08:29.733Z,12.40
2018-09-24T15:11:03.869Z,12.30
2018-09-24T15:13:38.075Z,12.20
2018-09-24T15:16:12.151Z,12.10
2018-09-24T15:18:46.347Z,12.00
2018-09-24T15:21:20.499Z,11.90
2018-09-24T15:23:59.562Z,11.80
2018-09-24T15:26:33.670Z,11.80
2018-09-24T15:29:08.017Z,11.80
2018-09-24T15:31:42.206Z,11.70
2018-09-24T15:34:16.402Z,11.70
2018-09-24T15:36:50.565Z,11.60
2018-09-24T15:39:24.629Z,11.60
2018-09-24T15:41:58.785Z,11.60
2018-09-24T15:44:33.052Z,11.50
2018-09-24T15:47:07.352Z,11.50
2018-09-24T15:49:41.529Z,11.50
2018-09-24T15:52:15.624Z,11.50
2018-09-24T15:54:49.786Z,11.50
2018-09-24T15:57:23.896Z,11.40
2018-09-24T15:59:58.086Z,11.40
2018-09-24T16:02:32.304Z,11.40
2018-09-24T16:05:06.464Z,11.40
2018-09-24T16:07:40.681Z,11.40
2018-09-24T16:10:14.994Z,11.40
2018-09-24T16:12:49.126Z,11.30
2018-09-24T16:15:23.230Z,11.30
2018-09-24T16:17:57.469Z,11.20
2018-09-24T16:20:31.583Z,11.20
2018-09-24T16:23:05.712Z,11.10
2018-09-24T16:25:39.706Z,11.10
2018-09-24T16:28:20.810Z,11.00
2018-09-24T16:30:54.987Z,11.00
2018-09-24T16:33:29.281Z,10.90
2018-09-24T16:36:03.449Z,10.80
2018-09-24T16:38:37.699Z,10.80
2018-09-24T16:41:12.024Z,10.80
2018-09-24T16:43:46.185Z,10.90
2018-09-24T16:46:20.394Z,11.00
2018-09-24T16:48:54.507Z,11.00
2018-09-24T16:51:28.680Z,10.90
2018-09-24T16:54:02.850Z,10.90
2018-09-24T16:56:36.836Z,10.80
2018-09-24T16:59:11.200Z,10.70
2018-09-24T17:01:45.306Z,10.50
2018-09-24T17:04:19.548Z,10.40
2018-09-24T17:06:53.697Z,10.30
2018-09-24T17:09:27.845Z,10.30
2018-09-24T17:12:02.030Z,10.20
2018-09-24T17:14:36.291Z,10.20
2018-09-24T17:17:10.441Z,10.10
2018-09-24T17:19:44.588Z,10.00
2018-09-24T17:22:18.825Z,9.90
2018-09-24T17:24:53.028Z,9.80
2018-09-24T17:27:27.190Z,9.90
2018-09-24T17:30:01.388Z,9.90
2018-09-24T17:32:35.490Z,9.90
2018-09-24T17:35:09.658Z,9.90
2018-09-24T17:37:43.713Z,10.00
2018-09-24T17:40:17.972Z,10.00
2018-09-24T17:42:52.086Z,10.00
2018-09-24T17:45:26.471Z,10.10
2018-09-24T17:48:00.694Z,10.10
2018-09-24T17:50:34.967Z,10.00
2018-09-24T17:53:09.055Z,10.10
2018-09-24T17:55:43.318Z,10.10
2018-09-24T17:58:17.330Z,10.10
2018-09-24T18:00:51.432Z,10.10
2018-09-24T18:03:25.586Z,10.10
2018-09-24T18:05:59.834Z,10.10
2018-09-24T18:08:34.170Z,10.10
2018-09-24T18:11:08.743Z,10.10
2018-09-24T18:13:43.182Z,10.10
2018-09-24T18:16:17.390Z,10.20
2018-09-24T18:18:51.611Z,10.20
2018-09-24T18:21:25.763Z,10.20
2018-09-24T18:24:00.030Z,10.20
2018-09-24T18:26:34.037Z,10.30
2018-09-24T18:29:08.192Z,10.30
2018-09-24T18:31:42.411Z,10.30
2018-09-24T18:34:16.565Z,10.30
2018-09-24T18:36:50.934Z,10.30
2018-09-24T18:39:25.254Z,10.30
2018-09-24T18:41:59.516Z,10.30
2018-09-24T18:44:33.775Z,10.30
2018-09-24T18:47:08.073Z,10.30
2018-09-24T18:49:42.294Z,10.30
2018-09-24T18:52:16.550Z,10.30
2018-09-24T18:54:50.878Z,10.30
2018-09-24T18:57:24.912Z,10.20
2018-09-24T18:59:59.120Z,10.20
2018-09-24T19:02:33.066Z,10.20
2018-09-24T19:05:07.285Z,10.20
2018-09-24T19:07:41.406Z,10.20
2018-09-24T19:10:15.577Z,10.10
2018-09-24T19:12:49.693Z,10.10
2018-09-24T19:15:33.696Z,10.10
2018-09-24T19:18:07.992Z,10.00
2018-09-24T19:20:42.091Z,9.80
2018-09-24T19:23:16.351Z,9.60
2018-09-24T19:25:50.469Z,9.60
2018-09-24T19:28:24.719Z,9.60
2018-09-24T19:30:58.780Z,9.60
2018-09-24T19:33:32.977Z,9.70
2018-09-24T19:36:07.198Z,9.70
2018-09-24T19:38:41.331Z,9.80
2018-09-24T19:41:15.424Z,9.80
2018-09-24T19:43:49.550Z,9.80
2018-09-24T19:46:23.578Z,9.80
2018-09-24T19:48:57.893Z,9.80
2018-09-24T19:51:31.887Z,9.80
2018-09-24T19:54:06.042Z,9.80
2018-09-24T19:56:40.238Z,9.80
2018-09-24T19:59:14.332Z,9.70
2018-09-24T20:01:48.615Z,9.60
2018-09-24T20:04:22.813Z,9.60
2018-09-24T20:06:56.823Z,9.60
2018-09-24T20:09:30.983Z,9.50
2018-09-24T20:12:05.099Z,9.40
2018-09-24T20:14:39.368Z,9.30
2018-09-24T20:17:13.502Z,9.30
2018-09-24T20:19:47.678Z,9.20
2018-09-24T20:22:21.760Z,9.30
2018-09-24T20:24:55.906Z,9.30
2018-09-24T20:27:30.027Z,9.40
2018-09-24T20:30:04.127Z,9.40
2018-09-24T20:32:38.272Z,9.50
2018-09-24T20:35:12.542Z,9.50
2018-09-24T20:37:46.654Z,9.60
2018-09-24T20:40:20.873Z,9.60
2018-09-24T20:42:54.829Z,9.60
2018-09-24T20:45:28.985Z,9.50
2018-09-24T20:48:02.989Z,9.50
2018-09-24T20:50:37.016Z,9.40
2018-09-24T20:53:11.329Z,9.40
2018-09-24T20:55:45.343Z,9.40
2018-09-24T20:58:19.370Z,9.40
2018-09-24T21:00:53.387Z,9.40
2018-09-24T21:03:27.517Z,9.40
2018-09-24T21:06:01.653Z,9.40
2018-09-24T21:08:36.208Z,9.30
2018-09-24T21:11:10.262Z,9.30
2018-09-24T21:13:44.297Z,9.30
2018-09-24T21:16:18.325Z,9.30
2018-09-24T21:18:52.511Z,9.30
2018-09-24T21:21:26.649Z,9.30
2018-09-24T21:24:00.774Z,9.40
2018-09-24T21:26:34.818Z,9.40
2018-09-24T21:29:09.030Z,9.50
2018-09-24T21:31:43.253Z,9.60
2018-09-24T21:34:17.430Z,9.60
2018-09-24T21:36:51.590Z,9.60
2018-09-24T21:39:25.805Z,9.60
2018-09-24T21:41:59.958Z,9.60
2018-09-24T21:44:34.305Z,9.60
2018-09-24T21:47:08.451Z,9.60
2018-09-24T21:49:42.431Z,9.60
2018-09-24T21:52:16.413Z,9.60
2018-09-24T21:54:50.474Z,9.60
2018-09-24T21:57:24.643Z,9.50
2018-09-24T21:59:58.795Z,9.50
2018-09-24T22:02:32.905Z,9.50
2018-09-24T22:05:07.185Z,9.40
2018-09-24T22:07:41.405Z,9.50
2018-09-24T22:10:15.390Z,9.40
2018-09-24T22:12:49.431Z,9.50
2018-09-24T22:15:23.622Z,9.40
2018-09-24T22:17:57.890Z,9.40
2018-09-24T22:20:31.918Z,9.40
2018-09-24T22:23:06.091Z,9.30
2018-09-24T22:25:40.155Z,9.30
2018-09-24T22:28:14.329Z,9.10
2018-09-24T22:30:48.389Z,9.10
2018-09-24T22:33:22.656Z,9.00
2018-09-24T22:35:56.835Z,9.00
2018-09-24T22:38:30.989Z,9.00
2018-09-24T22:41:05.255Z,9.00
2018-09-24T22:43:39.410Z,8.90
2018-09-24T22:46:13.662Z,8.80
2018-09-24T22:48:47.910Z,8.70
2018-09-24T22:51:22.113Z,8.70
2018-09-24T22:53:56.257Z,8.80
2018-09-24T22:56:30.470Z,8.90
2018-09-24T22:59:04.668Z,8.90
2018-09-24T23:01:38.850Z,9.00
2018-09-24T23:04:13.171Z,9.00
2018-09-24T23:06:47.249Z,9.10
2018-09-24T23:09:21.365Z,9.10
2018-09-24T23:11:55.650Z,9.10
2018-09-24T23:14:29.746Z,9.20
2018-09-24T23:17:03.867Z,9.20
2018-09-24T23:19:37.906Z,9.10
2018-09-24T23:22:12.121Z,9.10
2018-09-24T23:24:46.186Z,9.00
2018-09-24T23:27:20.402Z,8.90
2018-09-24T23:29:54.610Z,8.80
2018-09-24T23:32:28.875Z,8.80
2018-09-24T23:35:03.020Z,8.70
2018-09-24T23:37:37.265Z,8.60
2018-09-24T23:40:11.630Z,8.50
2018-09-24T23:42:45.772Z,8.50
2018-09-24T23:45:19.956Z,8.60
2018-09-24T23:47:53.977Z,8.70
2018-09-24T23:50:28.038Z,8.80
2018-09-24T23:53:02.056Z,8.90
2018-09-24T23:55:36.204Z,9.00
2018-09-24T23:58:10.602Z,9.10
